Weather at Fort Mojave Airstrip

Public forecast

Using degrees Fahrenheit for public forecast. Weather courtesy of forecast.io.

Closest aviation weather report (METAR) to Fort Mojave Airstrip

Closest report is Needles Airport, 6.5 nm (11.9 km) SSW. Retrieved 2021/06/13 15:56 UTC (8 minutes ago):

KEED 131556Z AUTO 00000KT 10SM CLR 32/M06 A2982 RMK AO2 SLP060 T03221061

Closest aviation forecast (TAF) to Fort Mojave Airstrip

Closest forecast is Needles Airport, 6.5 nm (11.9 km) SSW. Retrieved 2021/06/13 12:22 UTC (4 hours ago):

TAF KEED 131120Z 1312/1412 VRB05KT P6SM FEW250 FM131900 19013G22KT P6SM SKC FM140300 23009KT P6SM SKC FM140800 VRB05KT P6SM SKC